sensor_id;sensor_type;location;lat;lon;timestamp;P1;durP1;ratioP1;P2;durP2;ratioP2
43519;SDS011;46848;51.980;5.918;2023-02-12T00:00:09;15.37;;;9.87;;
43519;SDS011;46848;51.980;5.918;2023-02-12T00:02:36;13.87;;;9.90;;
43519;SDS011;46848;51.980;5.918;2023-02-12T00:05:02;15.93;;;10.67;;
43519;SDS011;46848;51.980;5.918;2023-02-12T00:07:30;15.17;;;10.57;;
43519;SDS011;46848;51.980;5.918;2023-02-12T00:09:55;14.77;;;10.10;;
43519;SDS011;46848;51.980;5.918;2023-02-12T00:12:21;16.27;;;10.63;;
43519;SDS011;46848;51.980;5.918;2023-02-12T00:14:47;14.73;;;10.20;;
43519;SDS011;46848;51.980;5.918;2023-02-12T00:17:13;16.70;;;10.60;;
43519;SDS011;46848;51.980;5.918;2023-02-12T00:19:38;16.50;;;10.87;;
43519;SDS011;46848;51.980;5.918;2023-02-12T00:22:04;16.90;;;10.50;;
43519;SDS011;46848;51.980;5.918;2023-02-12T00:24:29;17.77;;;11.83;;
43519;SDS011;46848;51.980;5.918;2023-02-12T00:26:57;17.53;;;11.40;;
43519;SDS011;46848;51.980;5.918;2023-02-12T00:29:25;18.07;;;11.40;;
43519;SDS011;46848;51.980;5.918;2023-02-12T00:31:51;15.37;;;11.43;;
43519;SDS011;46848;51.980;5.918;2023-02-12T00:34:16;17.37;;;11.70;;
43519;SDS011;46848;51.980;5.918;2023-02-12T00:36:42;15.57;;;11.03;;
43519;SDS011;46848;51.980;5.918;2023-02-12T00:39:08;19.80;;;13.47;;
43519;SDS011;46848;51.980;5.918;2023-02-12T00:41:34;15.13;;;11.27;;
43519;SDS011;46848;51.980;5.918;2023-02-12T00:44:00;17.00;;;11.67;;
43519;SDS011;46848;51.980;5.918;2023-02-12T00:46:28;17.80;;;11.40;;
43519;SDS011;46848;51.980;5.918;2023-02-12T00:48:53;19.47;;;12.10;;
43519;SDS011;46848;51.980;5.918;2023-02-12T00:51:19;16.73;;;12.40;;
43519;SDS011;46848;51.980;5.918;2023-02-12T00:53:45;16.27;;;11.57;;
43519;SDS011;46848;51.980;5.918;2023-02-12T00:56:11;18.00;;;11.80;;
43519;SDS011;46848;51.980;5.918;2023-02-12T00:58:36;17.57;;;11.70;;
43519;SDS011;46848;51.980;5.918;2023-02-12T01:01:06;17.63;;;11.83;;
43519;SDS011;46848;51.980;5.918;2023-02-12T01:03:31;19.23;;;12.80;;
43519;SDS011;46848;51.980;5.918;2023-02-12T01:05:57;18.80;;;11.60;;
43519;SDS011;46848;51.980;5.918;2023-02-12T01:08:22;15.53;;;11.67;;
43519;SDS011;46848;51.980;5.918;2023-02-12T01:10:55;17.27;;;12.33;;
43519;SDS011;46848;51.980;5.918;2023-02-12T01:13:24;18.87;;;12.73;;
43519;SDS011;46848;51.980;5.918;2023-02-12T01:15:59;17.53;;;11.83;;
43519;SDS011;46848;51.980;5.918;2023-02-12T01:18:35;17.47;;;12.47;;
43519;SDS011;46848;51.980;5.918;2023-02-12T01:21:09;20.27;;;13.27;;
43519;SDS011;46848;51.980;5.918;2023-02-12T01:23:39;17.33;;;11.97;;
43519;SDS011;46848;51.980;5.918;2023-02-12T01:26:09;20.10;;;12.27;;
43519;SDS011;46848;51.980;5.918;2023-02-12T01:28:54;17.20;;;12.53;;
43519;SDS011;46848;51.980;5.918;2023-02-12T01:31:44;20.03;;;13.17;;
43519;SDS011;46848;51.980;5.918;2023-02-12T01:34:10;17.80;;;12.77;;
43519;SDS011;46848;51.980;5.918;2023-02-12T01:36:41;19.13;;;13.15;;
43519;SDS011;46848;51.980;5.918;2023-02-12T01:39:10;17.80;;;12.83;;
43519;SDS011;46848;51.980;5.918;2023-02-12T01:41:41;20.57;;;12.77;;
43519;SDS011;46848;51.980;5.918;2023-02-12T01:44:18;19.17;;;13.33;;
43519;SDS011;46848;51.980;5.918;2023-02-12T01:47:11;21.77;;;14.33;;
43519;SDS011;46848;51.980;5.918;2023-02-12T01:49:39;18.90;;;14.07;;
43519;SDS011;46848;51.980;5.918;2023-02-12T01:52:18;18.33;;;12.80;;
43519;SDS011;46848;51.980;5.918;2023-02-12T01:54:52;18.53;;;12.47;;
43519;SDS011;46848;51.980;5.918;2023-02-12T01:57:22;19.03;;;13.20;;
43519;SDS011;46848;51.980;5.918;2023-02-12T01:59:50;20.20;;;13.07;;
43519;SDS011;46848;51.980;5.918;2023-02-12T02:02:23;19.47;;;12.93;;
43519;SDS011;46848;51.980;5.918;2023-02-12T02:04:49;18.40;;;12.90;;
43519;SDS011;46848;51.980;5.918;2023-02-12T02:07:25;17.93;;;13.13;;
43519;SDS011;46848;51.980;5.918;2023-02-12T02:09:52;18.57;;;13.17;;
43519;SDS011;46848;51.980;5.918;2023-02-12T02:12:18;19.80;;;13.60;;
43519;SDS011;46848;51.980;5.918;2023-02-12T02:15:02;19.40;;;13.63;;
43519;SDS011;46848;51.980;5.918;2023-02-12T02:23:08;17.87;;;13.33;;
43519;SDS011;46848;51.980;5.918;2023-02-12T02:32:16;19.05;;;12.77;;
43519;SDS011;46848;51.980;5.918;2023-02-12T02:37:03;20.60;;;14.03;;
43519;SDS011;46848;51.980;5.918;2023-02-12T02:42:13;19.33;;;13.57;;
43519;SDS011;46848;51.980;5.918;2023-02-12T02:44:46;16.77;;;13.20;;
43519;SDS011;46848;51.980;5.918;2023-02-12T02:47:19;19.47;;;13.90;;
43519;SDS011;46848;51.980;5.918;2023-02-12T02:49:50;18.77;;;12.67;;
43519;SDS011;46848;51.980;5.918;2023-02-12T02:52:23;19.00;;;13.07;;
43519;SDS011;46848;51.980;5.918;2023-02-12T02:55:01;19.50;;;13.33;;
43519;SDS011;46848;51.980;5.918;2023-02-12T02:57:38;17.02;;;12.82;;
43519;SDS011;46848;51.980;5.918;2023-02-12T03:02:57;19.43;;;13.27;;
43519;SDS011;46848;51.980;5.918;2023-02-12T03:05:34;20.17;;;14.30;;
43519;SDS011;46848;51.980;5.918;2023-02-12T03:10:37;19.02;;;13.55;;
43519;SDS011;46848;51.980;5.918;2023-02-12T03:13:08;17.25;;;12.32;;
43519;SDS011;46848;51.980;5.918;2023-02-12T03:15:45;21.83;;;13.73;;
43519;SDS011;46848;51.980;5.918;2023-02-12T03:24:11;18.87;;;12.27;;
43519;SDS011;46848;51.980;5.918;2023-02-12T03:26:46;18.93;;;12.50;;
43519;SDS011;46848;51.980;5.918;2023-02-12T03:29:19;19.30;;;13.13;;
43519;SDS011;46848;51.980;5.918;2023-02-12T03:37:32;17.27;;;12.60;;
43519;SDS011;46848;51.980;5.918;2023-02-12T03:40:35;20.63;;;13.43;;
43519;SDS011;46848;51.980;5.918;2023-02-12T03:43:42;20.05;;;13.80;;
43519;SDS011;46848;51.980;5.918;2023-02-12T03:54:07;19.93;;;14.03;;
43519;SDS011;46848;51.980;5.918;2023-02-12T03:59:22;18.70;;;13.23;;
43519;SDS011;46848;51.980;5.918;2023-02-12T04:01:49;21.40;;;14.47;;
43519;SDS011;46848;51.980;5.918;2023-02-12T04:04:17;20.03;;;13.03;;
43519;SDS011;46848;51.980;5.918;2023-02-12T04:06:44;17.53;;;12.73;;
43519;SDS011;46848;51.980;5.918;2023-02-12T04:09:12;19.57;;;13.57;;
43519;SDS011;46848;51.980;5.918;2023-02-12T04:14:40;16.83;;;12.20;;
43519;SDS011;46848;51.980;5.918;2023-02-12T04:17:16;19.17;;;13.60;;
43519;SDS011;46848;51.980;5.918;2023-02-12T04:31:32;17.13;;;12.37;;
43519;SDS011;46848;51.980;5.918;2023-02-12T04:34:16;18.27;;;11.90;;
43519;SDS011;46848;51.980;5.918;2023-02-12T04:36:59;20.77;;;12.53;;
43519;SDS011;46848;51.980;5.918;2023-02-12T04:39:33;16.23;;;12.33;;
43519;SDS011;46848;51.980;5.918;2023-02-12T04:42:03;19.00;;;13.20;;
43519;SDS011;46848;51.980;5.918;2023-02-12T04:44:30;17.17;;;12.47;;
43519;SDS011;46848;51.980;5.918;2023-02-12T04:46:58;18.43;;;12.17;;
43519;SDS011;46848;51.980;5.918;2023-02-12T04:49:25;16.63;;;12.40;;
43519;SDS011;46848;51.980;5.918;2023-02-12T04:51:51;18.23;;;12.80;;
43519;SDS011;46848;51.980;5.918;2023-02-12T04:54:17;21.17;;;13.10;;
43519;SDS011;46848;51.980;5.918;2023-02-12T04:56:45;16.67;;;12.63;;
43519;SDS011;46848;51.980;5.918;2023-02-12T04:59:11;20.03;;;13.00;;
43519;SDS011;46848;51.980;5.918;2023-02-12T05:01:37;18.10;;;12.53;;
43519;SDS011;46848;51.980;5.918;2023-02-12T05:04:04;17.43;;;12.07;;
43519;SDS011;46848;51.980;5.918;2023-02-12T05:06:33;18.43;;;12.63;;
43519;SDS011;46848;51.980;5.918;2023-02-12T05:09:00;19.87;;;12.40;;
43519;SDS011;46848;51.980;5.918;2023-02-12T05:11:26;17.70;;;12.73;;
43519;SDS011;46848;51.980;5.918;2023-02-12T05:13:52;16.90;;;12.37;;
43519;SDS011;46848;51.980;5.918;2023-02-12T05:16:18;16.13;;;12.60;;
43519;SDS011;46848;51.980;5.918;2023-02-12T05:18:45;18.17;;;12.73;;
43519;SDS011;46848;51.980;5.918;2023-02-12T05:21:11;16.97;;;12.50;;
43519;SDS011;46848;51.980;5.918;2023-02-12T05:23:37;18.23;;;13.13;;
43519;SDS011;46848;51.980;5.918;2023-02-12T05:26:05;20.23;;;13.53;;
43519;SDS011;46848;51.980;5.918;2023-02-12T05:28:38;18.13;;;12.50;;
43519;SDS011;46848;51.980;5.918;2023-02-12T05:31:05;18.47;;;12.80;;
43519;SDS011;46848;51.980;5.918;2023-02-12T05:33:32;18.47;;;13.20;;
43519;SDS011;46848;51.980;5.918;2023-02-12T05:36:05;18.27;;;12.90;;
43519;SDS011;46848;51.980;5.918;2023-02-12T05:38:33;17.33;;;12.60;;
43519;SDS011;46848;51.980;5.918;2023-02-12T05:41:03;16.30;;;11.70;;
43519;SDS011;46848;51.980;5.918;2023-02-12T05:43:30;19.17;;;13.40;;
43519;SDS011;46848;51.980;5.918;2023-02-12T05:45:59;20.20;;;13.83;;
43519;SDS011;46848;51.980;5.918;2023-02-12T05:48:26;19.33;;;13.67;;
43519;SDS011;46848;51.980;5.918;2023-02-12T05:50:53;21.40;;;13.90;;
43519;SDS011;46848;51.980;5.918;2023-02-12T05:53:18;23.90;;;18.17;;
43519;SDS011;46848;51.980;5.918;2023-02-12T05:55:45;31.27;;;23.30;;
43519;SDS011;46848;51.980;5.918;2023-02-12T05:58:10;31.73;;;22.80;;
43519;SDS011;46848;51.980;5.918;2023-02-12T06:00:36;33.67;;;24.40;;
43519;SDS011;46848;51.980;5.918;2023-02-12T06:03:02;30.87;;;22.93;;
43519;SDS011;46848;51.980;5.918;2023-02-12T06:05:27;30.67;;;22.07;;
43519;SDS011;46848;51.980;5.918;2023-02-12T06:07:53;27.87;;;21.50;;
43519;SDS011;46848;51.980;5.918;2023-02-12T06:10:18;28.10;;;20.47;;
43519;SDS011;46848;51.980;5.918;2023-02-12T06:12:44;26.37;;;20.73;;
43519;SDS011;46848;51.980;5.918;2023-02-12T06:15:10;29.90;;;22.30;;
43519;SDS011;46848;51.980;5.918;2023-02-12T06:17:35;29.77;;;20.50;;
43519;SDS011;46848;51.980;5.918;2023-02-12T06:20:01;27.77;;;20.30;;
43519;SDS011;46848;51.980;5.918;2023-02-12T06:22:27;24.53;;;19.20;;
43519;SDS011;46848;51.980;5.918;2023-02-12T06:24:53;26.63;;;20.20;;
43519;SDS011;46848;51.980;5.918;2023-02-12T06:27:18;27.97;;;20.43;;
43519;SDS011;46848;51.980;5.918;2023-02-12T06:29:44;24.87;;;19.33;;
43519;SDS011;46848;51.980;5.918;2023-02-12T06:32:10;25.53;;;19.27;;
43519;SDS011;46848;51.980;5.918;2023-02-12T06:34:37;25.03;;;17.80;;
43519;SDS011;46848;51.980;5.918;2023-02-12T06:37:03;21.27;;;16.77;;
43519;SDS011;46848;51.980;5.918;2023-02-12T06:39:29;21.80;;;16.47;;
43519;SDS011;46848;51.980;5.918;2023-02-12T06:41:55;22.40;;;15.80;;
43519;SDS011;46848;51.980;5.918;2023-02-12T06:44:20;21.07;;;16.33;;
43519;SDS011;46848;51.980;5.918;2023-02-12T06:46:46;22.10;;;16.40;;
43519;SDS011;46848;51.980;5.918;2023-02-12T06:49:12;19.17;;;14.30;;
43519;SDS011;46848;51.980;5.918;2023-02-12T06:51:38;20.13;;;14.97;;
43519;SDS011;46848;51.980;5.918;2023-02-12T06:54:05;21.77;;;14.97;;
43519;SDS011;46848;51.980;5.918;2023-02-12T06:56:37;19.40;;;13.80;;
43519;SDS011;46848;51.980;5.918;2023-02-12T06:59:03;20.23;;;14.90;;
43519;SDS011;46848;51.980;5.918;2023-02-12T07:01:29;17.77;;;13.50;;
43519;SDS011;46848;51.980;5.918;2023-02-12T07:03:59;20.57;;;14.20;;
43519;SDS011;46848;51.980;5.918;2023-02-12T07:06:26;18.10;;;13.18;;
43519;SDS011;46848;51.980;5.918;2023-02-12T07:08:53;19.93;;;13.87;;
43519;SDS011;46848;51.980;5.918;2023-02-12T07:11:23;17.50;;;13.73;;
43519;SDS011;46848;51.980;5.918;2023-02-12T07:13:53;19.20;;;13.90;;
43519;SDS011;46848;51.980;5.918;2023-02-12T07:16:19;17.87;;;13.17;;
43519;SDS011;46848;51.980;5.918;2023-02-12T07:18:45;17.17;;;13.50;;
43519;SDS011;46848;51.980;5.918;2023-02-12T07:21:11;17.80;;;13.90;;
43519;SDS011;46848;51.980;5.918;2023-02-12T07:23:38;17.67;;;13.17;;
43519;SDS011;46848;51.980;5.918;2023-02-12T07:26:05;17.67;;;12.77;;
43519;SDS011;46848;51.980;5.918;2023-02-12T07:28:33;18.43;;;13.33;;
43519;SDS011;46848;51.980;5.918;2023-02-12T07:31:12;18.40;;;12.43;;
43519;SDS011;46848;51.980;5.918;2023-02-12T07:33:39;17.27;;;12.77;;
43519;SDS011;46848;51.980;5.918;2023-02-12T07:36:07;17.20;;;13.23;;
43519;SDS011;46848;51.980;5.918;2023-02-12T07:38:34;18.67;;;13.87;;
43519;SDS011;46848;51.980;5.918;2023-02-12T07:41:10;18.40;;;12.97;;
43519;SDS011;46848;51.980;5.918;2023-02-12T07:43:39;18.77;;;14.57;;
43519;SDS011;46848;51.980;5.918;2023-02-12T07:46:06;19.67;;;14.67;;
43519;SDS011;46848;51.980;5.918;2023-02-12T07:48:33;20.00;;;14.27;;
43519;SDS011;46848;51.980;5.918;2023-02-12T07:51:02;21.43;;;13.87;;
43519;SDS011;46848;51.980;5.918;2023-02-12T07:53:31;19.07;;;13.83;;
43519;SDS011;46848;51.980;5.918;2023-02-12T07:56:10;18.53;;;13.33;;
43519;SDS011;46848;51.980;5.918;2023-02-12T07:58:39;18.77;;;13.90;;
43519;SDS011;46848;51.980;5.918;2023-02-12T08:01:25;20.90;;;15.13;;
43519;SDS011;46848;51.980;5.918;2023-02-12T08:03:52;17.70;;;13.40;;
43519;SDS011;46848;51.980;5.918;2023-02-12T08:06:22;21.67;;;15.17;;
43519;SDS011;46848;51.980;5.918;2023-02-12T08:08:50;19.37;;;14.07;;
43519;SDS011;46848;51.980;5.918;2023-02-12T08:11:21;20.10;;;14.70;;
43519;SDS011;46848;51.980;5.918;2023-02-12T08:13:47;24.37;;;16.30;;
43519;SDS011;46848;51.980;5.918;2023-02-12T08:16:14;19.60;;;14.63;;
43519;SDS011;46848;51.980;5.918;2023-02-12T08:18:44;18.47;;;14.10;;
43519;SDS011;46848;51.980;5.918;2023-02-12T08:21:11;18.37;;;14.10;;
43519;SDS011;46848;51.980;5.918;2023-02-12T08:23:38;16.33;;;14.07;;
43519;SDS011;46848;51.980;5.918;2023-02-12T08:26:14;18.47;;;14.57;;
43519;SDS011;46848;51.980;5.918;2023-02-12T08:28:48;22.43;;;15.10;;
43519;SDS011;46848;51.980;5.918;2023-02-12T08:31:19;22.10;;;15.47;;
43519;SDS011;46848;51.980;5.918;2023-02-12T08:33:49;18.50;;;14.30;;
43519;SDS011;46848;51.980;5.918;2023-02-12T08:36:17;19.37;;;15.10;;
43519;SDS011;46848;51.980;5.918;2023-02-12T08:38:45;18.90;;;13.97;;
43519;SDS011;46848;51.980;5.918;2023-02-12T08:41:13;19.97;;;15.23;;
43519;SDS011;46848;51.980;5.918;2023-02-12T08:43:40;21.63;;;15.80;;
43519;SDS011;46848;51.980;5.918;2023-02-12T08:46:10;21.07;;;15.13;;
43519;SDS011;46848;51.980;5.918;2023-02-12T08:48:41;18.10;;;13.53;;
43519;SDS011;46848;51.980;5.918;2023-02-12T08:51:09;19.23;;;15.23;;
43519;SDS011;46848;51.980;5.918;2023-02-12T08:53:44;19.10;;;14.80;;
43519;SDS011;46848;51.980;5.918;2023-02-12T08:56:12;19.73;;;13.90;;
43519;SDS011;46848;51.980;5.918;2023-02-12T08:58:39;20.50;;;15.23;;
43519;SDS011;46848;51.980;5.918;2023-02-12T09:01:24;19.93;;;15.00;;
43519;SDS011;46848;51.980;5.918;2023-02-12T09:03:51;20.17;;;15.43;;
43519;SDS011;46848;51.980;5.918;2023-02-12T09:06:18;18.43;;;14.63;;
43519;SDS011;46848;51.980;5.918;2023-02-12T09:08:44;22.80;;;16.00;;
43519;SDS011;46848;51.980;5.918;2023-02-12T09:11:14;18.87;;;15.33;;
43519;SDS011;46848;51.980;5.918;2023-02-12T09:13:48;20.57;;;15.83;;
43519;SDS011;46848;51.980;5.918;2023-02-12T09:16:13;21.70;;;16.37;;
43519;SDS011;46848;51.980;5.918;2023-02-12T09:18:39;21.47;;;16.47;;
43519;SDS011;46848;51.980;5.918;2023-02-12T09:21:09;21.03;;;16.10;;
43519;SDS011;46848;51.980;5.918;2023-02-12T09:23:37;22.63;;;17.13;;
43519;SDS011;46848;51.980;5.918;2023-02-12T09:26:08;19.40;;;15.60;;
43519;SDS011;46848;51.980;5.918;2023-02-12T09:28:36;20.05;;;15.50;;
43519;SDS011;46848;51.980;5.918;2023-02-12T09:31:05;21.90;;;16.40;;
43519;SDS011;46848;51.980;5.918;2023-02-12T09:33:32;20.83;;;16.33;;
43519;SDS011;46848;51.980;5.918;2023-02-12T09:36:02;20.33;;;16.20;;
43519;SDS011;46848;51.980;5.918;2023-02-12T09:38:28;24.03;;;16.53;;
43519;SDS011;46848;51.980;5.918;2023-02-12T09:46:54;23.90;;;16.35;;
43519;SDS011;46848;51.980;5.918;2023-02-12T09:52:47;25.57;;;17.33;;
43519;SDS011;46848;51.980;5.918;2023-02-12T09:55:14;23.67;;;18.30;;
43519;SDS011;46848;51.980;5.918;2023-02-12T09:57:42;28.97;;;19.47;;
43519;SDS011;46848;51.980;5.918;2023-02-12T10:00:30;24.93;;;18.53;;
43519;SDS011;46848;51.980;5.918;2023-02-12T10:02:56;25.23;;;18.13;;
43519;SDS011;46848;51.980;5.918;2023-02-12T10:05:26;26.50;;;18.17;;
43519;SDS011;46848;51.980;5.918;2023-02-12T10:18:35;25.77;;;18.70;;
43519;SDS011;46848;51.980;5.918;2023-02-12T10:26:22;25.63;;;19.37;;
43519;SDS011;46848;51.980;5.918;2023-02-12T10:28:58;24.23;;;18.20;;
43519;SDS011;46848;51.980;5.918;2023-02-12T10:31:34;26.37;;;18.60;;
43519;SDS011;46848;51.980;5.918;2023-02-12T10:34:07;27.97;;;20.23;;
43519;SDS011;46848;51.980;5.918;2023-02-12T10:36:46;25.50;;;19.30;;
43519;SDS011;46848;51.980;5.918;2023-02-12T10:39:20;26.23;;;20.13;;
43519;SDS011;46848;51.980;5.918;2023-02-12T10:41:55;25.80;;;18.97;;
43519;SDS011;46848;51.980;5.918;2023-02-12T10:44:26;25.17;;;19.03;;
43519;SDS011;46848;51.980;5.918;2023-02-12T10:46:52;23.80;;;18.73;;
43519;SDS011;46848;51.980;5.918;2023-02-12T10:49:18;24.07;;;18.40;;
43519;SDS011;46848;51.980;5.918;2023-02-12T10:57:13;22.17;;;16.53;;
43519;SDS011;46848;51.980;5.918;2023-02-12T10:59:42;23.13;;;17.70;;
43519;SDS011;46848;51.980;5.918;2023-02-12T11:04:48;24.57;;;17.53;;
43519;SDS011;46848;51.980;5.918;2023-02-12T11:07:15;23.40;;;17.30;;
43519;SDS011;46848;51.980;5.918;2023-02-12T11:09:42;26.20;;;18.70;;
43519;SDS011;46848;51.980;5.918;2023-02-12T11:12:25;28.53;;;21.67;;
43519;SDS011;46848;51.980;5.918;2023-02-12T11:17:58;25.67;;;18.57;;
43519;SDS011;46848;51.980;5.918;2023-02-12T11:20:32;23.57;;;17.40;;
43519;SDS011;46848;51.980;5.918;2023-02-12T11:23:04;24.43;;;17.57;;
43519;SDS011;46848;51.980;5.918;2023-02-12T11:25:53;24.87;;;18.40;;
43519;SDS011;46848;51.980;5.918;2023-02-12T11:28:21;25.37;;;18.23;;
43519;SDS011;46848;51.980;5.918;2023-02-12T11:30:58;25.50;;;17.07;;
43519;SDS011;46848;51.980;5.918;2023-02-12T11:33:34;23.67;;;16.27;;
43519;SDS011;46848;51.980;5.918;2023-02-12T11:36:02;21.87;;;15.50;;
43519;SDS011;46848;51.980;5.918;2023-02-12T11:38:38;22.43;;;15.70;;
43519;SDS011;46848;51.980;5.918;2023-02-12T11:41:20;23.57;;;16.23;;
43519;SDS011;46848;51.980;5.918;2023-02-12T11:43:47;24.17;;;17.10;;
43519;SDS011;46848;51.980;5.918;2023-02-12T11:46:20;23.70;;;16.07;;
43519;SDS011;46848;51.980;5.918;2023-02-12T11:48:49;18.97;;;14.10;;
43519;SDS011;46848;51.980;5.918;2023-02-12T11:51:17;20.73;;;14.40;;
43519;SDS011;46848;51.980;5.918;2023-02-12T11:53:48;23.90;;;15.13;;
43519;SDS011;46848;51.980;5.918;2023-02-12T11:56:16;22.57;;;15.57;;
43519;SDS011;46848;51.980;5.918;2023-02-12T11:58:42;21.83;;;15.20;;
43519;SDS011;46848;51.980;5.918;2023-02-12T12:09:20;19.67;;;14.32;;
43519;SDS011;46848;51.980;5.918;2023-02-12T12:14:49;19.10;;;13.90;;
43519;SDS011;46848;51.980;5.918;2023-02-12T12:17:44;21.83;;;15.07;;
43519;SDS011;46848;51.980;5.918;2023-02-12T12:20:46;20.97;;;14.33;;
43519;SDS011;46848;51.980;5.918;2023-02-12T12:23:24;22.47;;;14.73;;
43519;SDS011;46848;51.980;5.918;2023-02-12T12:25:57;20.42;;;14.23;;
43519;SDS011;46848;51.980;5.918;2023-02-12T12:28:41;22.65;;;14.23;;
43519;SDS011;46848;51.980;5.918;2023-02-12T12:31:31;23.02;;;15.38;;
43519;SDS011;46848;51.980;5.918;2023-02-12T13:01:33;25.30;;;14.18;;
43519;SDS011;46848;51.980;5.918;2023-02-12T13:07:37;18.52;;;13.15;;
43519;SDS011;46848;51.980;5.918;2023-02-12T13:15:51;21.63;;;14.30;;
43519;SDS011;46848;51.980;5.918;2023-02-12T13:21:10;20.08;;;14.30;;
43519;SDS011;46848;51.980;5.918;2023-02-12T13:23:54;18.20;;;12.57;;
43519;SDS011;46848;51.980;5.918;2023-02-12T13:29:01;19.02;;;13.15;;
43519;SDS011;46848;51.980;5.918;2023-02-12T13:31:50;19.02;;;13.88;;
43519;SDS011;46848;51.980;5.918;2023-02-12T13:34:23;18.50;;;12.75;;
43519;SDS011;46848;51.980;5.918;2023-02-12T13:36:53;19.42;;;13.00;;
43519;SDS011;46848;51.980;5.918;2023-02-12T13:39:35;18.13;;;12.65;;
43519;SDS011;46848;51.980;5.918;2023-02-12T13:42:09;20.23;;;13.63;;
43519;SDS011;46848;51.980;5.918;2023-02-12T13:45:01;17.40;;;12.80;;
43519;SDS011;46848;51.980;5.918;2023-02-12T13:56:49;15.32;;;11.10;;
43519;SDS011;46848;51.980;5.918;2023-02-12T14:01:55;18.27;;;12.05;;
43519;SDS011;46848;51.980;5.918;2023-02-12T14:07:24;16.67;;;12.40;;
43519;SDS011;46848;51.980;5.918;2023-02-12T14:12:53;16.07;;;11.20;;
43519;SDS011;46848;51.980;5.918;2023-02-12T14:15:35;17.63;;;12.23;;
43519;SDS011;46848;51.980;5.918;2023-02-12T14:23:41;19.83;;;13.57;;
43519;SDS011;46848;51.980;5.918;2023-02-12T14:26:17;16.50;;;12.30;;
43519;SDS011;46848;51.980;5.918;2023-02-12T14:28:52;17.77;;;12.30;;
43519;SDS011;46848;51.980;5.918;2023-02-12T14:41:37;18.80;;;12.63;;
43519;SDS011;46848;51.980;5.918;2023-02-12T14:49:19;18.27;;;12.68;;
43519;SDS011;46848;51.980;5.918;2023-02-12T14:51:57;20.10;;;13.40;;
43519;SDS011;46848;51.980;5.918;2023-02-12T14:55:04;15.82;;;12.02;;
43519;SDS011;46848;51.980;5.918;2023-02-12T14:57:41;17.08;;;12.05;;
43519;SDS011;46848;51.980;5.918;2023-02-12T15:02:56;19.73;;;12.32;;
43519;SDS011;46848;51.980;5.918;2023-02-12T15:05:30;19.67;;;12.90;;
43519;SDS011;46848;51.980;5.918;2023-02-12T15:08:05;19.52;;;13.60;;
43519;SDS011;46848;51.980;5.918;2023-02-12T15:13:48;19.23;;;13.27;;
43519;SDS011;46848;51.980;5.918;2023-02-12T15:19:11;18.13;;;12.73;;
43519;SDS011;46848;51.980;5.918;2023-02-12T15:21:38;24.53;;;14.30;;
43519;SDS011;46848;51.980;5.918;2023-02-12T15:24:08;17.40;;;12.53;;
43519;SDS011;46848;51.980;5.918;2023-02-12T15:26:38;18.97;;;13.13;;
43519;SDS011;46848;51.980;5.918;2023-02-12T15:29:32;17.90;;;12.47;;
43519;SDS011;46848;51.980;5.918;2023-02-12T15:32:05;15.30;;;11.00;;
43519;SDS011;46848;51.980;5.918;2023-02-12T15:34:35;20.37;;;11.27;;
43519;SDS011;46848;51.980;5.918;2023-02-12T15:39:41;14.80;;;10.77;;
43519;SDS011;46848;51.980;5.918;2023-02-12T15:45:48;16.37;;;11.63;;
43519;SDS011;46848;51.980;5.918;2023-02-12T15:48:19;20.85;;;12.55;;
43519;SDS011;46848;51.980;5.918;2023-02-12T15:50:51;22.25;;;13.13;;
43519;SDS011;46848;51.980;5.918;2023-02-12T15:53:18;16.73;;;11.73;;
43519;SDS011;46848;51.980;5.918;2023-02-12T15:55:46;19.83;;;12.97;;
43519;SDS011;46848;51.980;5.918;2023-02-12T15:58:24;18.47;;;13.40;;
43519;SDS011;46848;51.980;5.918;2023-02-12T16:00:55;19.20;;;12.47;;
43519;SDS011;46848;51.980;5.918;2023-02-12T16:03:30;20.17;;;13.45;;
43519;SDS011;46848;51.980;5.918;2023-02-12T16:09:07;16.30;;;11.47;;
43519;SDS011;46848;51.980;5.918;2023-02-12T16:11:37;17.37;;;11.70;;
43519;SDS011;46848;51.980;5.918;2023-02-12T16:16:58;16.83;;;11.33;;
43519;SDS011;46848;51.980;5.918;2023-02-12T16:19:27;17.10;;;11.63;;
43519;SDS011;46848;51.980;5.918;2023-02-12T16:24:34;17.50;;;11.63;;
43519;SDS011;46848;51.980;5.918;2023-02-12T16:27:15;17.23;;;12.03;;
43519;SDS011;46848;51.980;5.918;2023-02-12T16:29:48;18.57;;;11.77;;
43519;SDS011;46848;51.980;5.918;2023-02-12T16:32:35;17.33;;;11.23;;
43519;SDS011;46848;51.980;5.918;2023-02-12T16:42:32;17.70;;;12.10;;
43519;SDS011;46848;51.980;5.918;2023-02-12T16:44:58;18.20;;;12.27;;
43519;SDS011;46848;51.980;5.918;2023-02-12T16:47:23;19.17;;;12.53;;
43519;SDS011;46848;51.980;5.918;2023-02-12T16:49:53;17.77;;;12.17;;
43519;SDS011;46848;51.980;5.918;2023-02-12T16:52:36;18.63;;;12.93;;
43519;SDS011;46848;51.980;5.918;2023-02-12T16:55:04;20.23;;;14.03;;
43519;SDS011;46848;51.980;5.918;2023-02-12T16:57:31;21.07;;;13.80;;
43519;SDS011;46848;51.980;5.918;2023-02-12T16:59:57;23.15;;;15.10;;
43519;SDS011;46848;51.980;5.918;2023-02-12T17:02:23;22.70;;;16.17;;
43519;SDS011;46848;51.980;5.918;2023-02-12T17:04:48;21.63;;;14.07;;
43519;SDS011;46848;51.980;5.918;2023-02-12T17:07:15;18.40;;;12.97;;
43519;SDS011;46848;51.980;5.918;2023-02-12T17:12:12;19.40;;;12.50;;
43519;SDS011;46848;51.980;5.918;2023-02-12T17:14:38;18.13;;;12.57;;
43519;SDS011;46848;51.980;5.918;2023-02-12T17:17:03;18.90;;;13.50;;
43519;SDS011;46848;51.980;5.918;2023-02-12T17:19:29;22.30;;;13.73;;
43519;SDS011;46848;51.980;5.918;2023-02-12T17:21:55;22.33;;;14.73;;
43519;SDS011;46848;51.980;5.918;2023-02-12T17:24:22;28.03;;;17.20;;
43519;SDS011;46848;51.980;5.918;2023-02-12T17:26:50;26.13;;;15.83;;
43519;SDS011;46848;51.980;5.918;2023-02-12T17:29:17;25.47;;;16.53;;
43519;SDS011;46848;51.980;5.918;2023-02-12T17:31:44;25.07;;;15.57;;
43519;SDS011;46848;51.980;5.918;2023-02-12T17:34:11;21.97;;;15.53;;
43519;SDS011;46848;51.980;5.918;2023-02-12T17:36:37;23.30;;;15.27;;
43519;SDS011;46848;51.980;5.918;2023-02-12T17:39:04;21.93;;;14.70;;
43519;SDS011;46848;51.980;5.918;2023-02-12T17:41:31;22.23;;;15.43;;
43519;SDS011;46848;51.980;5.918;2023-02-12T17:43:57;23.90;;;15.20;;
43519;SDS011;46848;51.980;5.918;2023-02-12T17:46:23;20.33;;;14.53;;
43519;SDS011;46848;51.980;5.918;2023-02-12T17:48:50;20.83;;;14.80;;
43519;SDS011;46848;51.980;5.918;2023-02-12T17:51:16;21.10;;;14.67;;
43519;SDS011;46848;51.980;5.918;2023-02-12T17:53:41;21.30;;;14.93;;
43519;SDS011;46848;51.980;5.918;2023-02-12T17:56:11;22.27;;;15.33;;
43519;SDS011;46848;51.980;5.918;2023-02-12T17:58:38;22.87;;;15.07;;
43519;SDS011;46848;51.980;5.918;2023-02-12T18:01:06;21.03;;;14.40;;
43519;SDS011;46848;51.980;5.918;2023-02-12T18:03:33;23.77;;;15.73;;
43519;SDS011;46848;51.980;5.918;2023-02-12T18:05:59;24.23;;;16.00;;
43519;SDS011;46848;51.980;5.918;2023-02-12T18:08:25;23.83;;;16.50;;
43519;SDS011;46848;51.980;5.918;2023-02-12T18:10:51;20.80;;;14.83;;
43519;SDS011;46848;51.980;5.918;2023-02-12T18:13:16;24.67;;;15.70;;
43519;SDS011;46848;51.980;5.918;2023-02-12T18:15:42;22.77;;;15.27;;
43519;SDS011;46848;51.980;5.918;2023-02-12T18:18:08;25.03;;;16.57;;
43519;SDS011;46848;51.980;5.918;2023-02-12T18:20:34;30.07;;;18.77;;